DNEN

Akanu Ibiam International Airport

Enegu, Nigeria
METAR DNEN 181100Z 22006KT 9999 BKN010 29/24 Q1014
Observed Flight Rules
Aug-18 @ 11:00 UTC (4 hours ago) Marginal Visual Flight Rules
Wind Visibility Clouds
220° at 6 knots 10,000+ meters
  • Broken at 1,000' AGL
Temperatures Readings
Current 29°C / 84°F
Dewpoint 24°C / 75°F
Humidity 74%
Altimeter 29.94" Hg
Pressure 1014 hPa
Elevation 137
METAR DNEN 181100Z 22006KT 9999 BKN010 29/24 Q1014
Observed Flight Rules
Aug-18 @ 11:00 UTC
(4 hours ago)
MVFR
Wind Visibility
220° at 6 knots 10,000+ meters
Clouds
  • Broken at 1,000' AGL
Temperature Dewpoint
29°C / 84°F 24°C / 75°F
Humidity Altimeter Pressure
74% 29.94" Hg 1014 hPa